Pursglove, West Virginia
Current Conditions -  °F | °C
As of 10:53 AM on Saturday 22 Nov 2014 (Local Time) from KMGW Reporting Station
Overcast Overcast  
Wind Chill: 40°   Ceiling: 4000
Heat Index: 40°   Visibility: 10mi
Dew Point: 12°   Wind: 3mph
Humidity: 32%   Direction: NA
Pressure: 30.33"   Gusts: NA
Location:  39.67°N, 80.03°W
Report Text: KMGW 221553Z VRB03KT 10SM OVC040 04/M11 A3033 RMK AO2 SLP285 T00441111
Loading
Personal Weather Stations






























Interactive Weather Map New forecast layout! Learn more

10-Day Weather Forecast

Advertisements
Track Severe Weather on mobile